Time;durP1;ratioP1;P1;durP2;ratioP2;P2;SDS_P1;SDS_P2;PMS_P1;PMS_P2;Temp;Humidity;BMP_temperature;BMP_pressure;BME280_temperature;BME280_humidity;BME280_pressure;Samples;Min_cycle;Max_cycle;Signal;HPM_P1;HPM_P2
2021/03/07 00:00:27;;;;;;;4.70;3.20;;;2.80;82.10;;;;;;5096604;28;20167;-85
2021/03/07 00:03:06;;;;;;;3.47;2.33;;;2.80;82.10;;;;;;5078100;28;20175;-85
2021/03/07 00:05:40;;;;;;;4.23;2.90;;;2.80;82.10;;;;;;5078017;28;20570;-85
2021/03/07 00:08:11;;;;;;;9.90;2.23;;;2.80;82.00;;;;;;5096134;28;20173;-85
2021/03/07 00:10:47;;;;;;;6.47;2.97;;;2.80;82.00;;;;;;5077870;28;20231;-85
2021/03/07 00:13:13;;;;;;;9.37;2.77;;;2.80;82.20;;;;;;5077867;28;20174;-85
2021/03/07 00:15:48;;;;;;;3.57;2.43;;;2.80;81.70;;;;;;5077806;28;20339;-85
2021/03/07 00:18:23;;;;;;;3.87;2.37;;;2.80;81.70;;;;;;5077851;28;20205;-85
2021/03/07 00:20:54;;;;;;;5.97;3.20;;;2.80;81.70;;;;;;5077869;28;20267;-85
2021/03/07 00:23:34;;;;;;;7.50;2.37;;;2.80;81.70;;;;;;5095952;28;20196;-85
2021/03/07 00:26:05;;;;;;;5.57;2.63;;;2.80;81.80;;;;;;5077729;28;20198;-85
2021/03/07 00:28:39;;;;;;;4.63;2.43;;;2.80;81.90;;;;;;5095813;28;20176;-85
2021/03/07 00:31:08;;;;;;;4.40;3.23;;;2.80;81.90;;;;;;5077481;28;20202;-85
2021/03/07 00:33:41;;;;;;;4.77;2.60;;;2.80;82.00;;;;;;5095736;28;20259;-85
2021/03/07 00:36:11;;;;;;;5.07;2.63;;;2.90;81.30;;;;;;5077348;28;20196;-85
2021/03/07 00:38:46;;;;;;;8.57;2.70;;;2.80;81.40;;;;;;5077533;28;20210;-86
2021/03/07 00:41:20;;;;;;;8.27;2.67;;;2.80;80.70;;;;;;5077374;28;20180;-86
2021/03/07 00:43:57;;;;;;;5.87;2.40;;;2.90;80.60;;;;;;5077384;28;20202;-85
2021/03/07 00:46:35;;;;;;;3.30;2.23;;;2.90;80.40;;;;;;5095437;28;20174;-85
2021/03/07 00:49:07;;;;;;;5.37;2.63;;;2.90;80.90;;;;;;5095393;28;20644;-85
2021/03/07 00:51:38;;;;;;;2.50;2.13;;;2.90;81.10;;;;;;5095361;28;20190;-85
2021/03/07 00:54:05;;;;;;;9.87;2.93;;;2.80;81.10;;;;;;5094934;28;20204;-85
2021/03/07 00:56:35;;;;;;;7.47;2.40;;;2.80;81.10;;;;;;5095315;28;20202;-85
2021/03/07 00:59:05;;;;;;;4.00;2.20;;;2.80;80.70;;;;;;5077027;28;20203;-85
2021/03/07 01:01:37;;;;;;;11.07;3.10;;;2.90;80.40;;;;;;5095139;28;20212;-85
2021/03/07 01:04:11;;;;;;;6.93;2.57;;;2.80;80.50;;;;;;5077465;28;20178;-85
2021/03/07 01:06:48;;;;;;;3.47;1.80;;;2.80;80.20;;;;;;5095067;28;20737;-85
2021/03/07 01:09:19;;;;;;;3.90;2.40;;;2.90;79.10;;;;;;5095260;28;20186;-86
2021/03/07 01:11:58;;;;;;;9.63;2.03;;;2.90;79.20;;;;;;5094943;28;20198;-85
2021/03/07 01:14:34;;;;;;;8.07;1.90;;;2.90;79.10;;;;;;5095039;28;20560;-85
2021/03/07 01:17:11;;;;;;;6.33;3.83;;;2.90;79.50;;;;;;5095160;28;20619;-85
2021/03/07 01:19:40;;;;;;;4.53;1.80;;;2.90;79.20;;;;;;5076645;28;20176;-85
2021/03/07 01:22:15;;;;;;;8.63;2.13;;;2.90;79.40;;;;;;5076725;28;20182;-85
2021/03/07 01:24:49;;;;;;;5.03;2.30;;;2.90;79.50;;;;;;5095107;28;20190;-85
2021/03/07 01:27:20;;;;;;;3.57;1.87;;;2.90;79.50;;;;;;5077296;28;20188;-84
2021/03/07 01:29:54;;;;;;;4.43;2.30;;;2.90;79.60;;;;;;5094559;28;20644;-84
2021/03/07 01:32:30;;;;;;;6.23;2.20;;;2.80;79.50;;;;;;5094480;28;20663;-84
2021/03/07 01:35:01;;;;;;;5.13;1.97;;;2.90;79.60;;;;;;5094613;28;20196;-84
2021/03/07 01:37:27;;;;;;;5.30;1.93;;;2.90;79.80;;;;;;5094483;28;20244;-83
2021/03/07 01:39:56;;;;;;;2.30;1.93;;;2.90;79.80;;;;;;5076429;28;20639;-85
2021/03/07 01:42:32;;;;;;;7.07;2.37;;;2.80;80.00;;;;;;5076128;28;20594;-85
2021/03/07 01:44:59;;;;;;;4.37;2.27;;;2.80;80.00;;;;;;5094523;28;20194;-84
2021/03/07 01:47:40;;;;;;;6.83;2.10;;;2.80;79.90;;;;;;5076058;28;20183;-84
2021/03/07 01:50:07;;;;;;;7.47;2.23;;;2.80;79.80;;;;;;5075993;28;20275;-84
2021/03/07 01:52:42;;;;;;;7.97;2.20;;;2.80;79.60;;;;;;5094146;28;20643;-84
2021/03/07 01:55:12;;;;;;;7.43;2.33;;;2.80;79.60;;;;;;5075996;28;20210;-84
2021/03/07 01:57:45;;;;;;;15.00;2.67;;;2.80;79.70;;;;;;5094278;28;20178;-84
2021/03/07 02:00:12;;;;;;;9.27;2.47;;;2.90;79.80;;;;;;5075842;28;20259;-84
2021/03/07 02:02:44;;;;;;;9.53;2.87;;;2.90;80.00;;;;;;5075751;28;20175;-85
2021/03/07 02:05:17;;;;;;;5.10;2.60;;;2.90;80.10;;;;;;5093536;28;20195;-84
2021/03/07 02:07:51;;;;;;;9.13;3.30;;;2.90;79.90;;;;;;5076471;28;20244;-84
2021/03/07 02:10:38;;;;;;;5.63;2.97;;;2.90;79.90;;;;;;5093866;28;20173;-83
2021/03/07 02:13:30;;;;;;;11.07;4.13;;;2.90;79.60;;;;;;5093855;28;20635;-84
2021/03/07 02:16:21;;;;;;;4.40;2.20;;;3.00;78.80;;;;;;5093638;28;20695;-85
2021/03/07 02:18:54;;;;;;;2.77;1.70;;;2.90;79.30;;;;;;5093726;28;20540;-84
2021/03/07 02:21:41;;;;;;;5.57;2.30;;;2.90;79.50;;;;;;5093659;28;20201;-85
2021/03/07 02:24:12;;;;;;;6.17;2.40;;;2.80;79.40;;;;;;5093656;28;20190;-85
2021/03/07 02:26:51;;;;;;;7.93;2.47;;;2.80;79.60;;;;;;5075478;28;20174;-85
2021/03/07 02:29:22;;;;;;;4.17;2.20;;;2.80;79.90;;;;;;5093588;28;20174;-85
2021/03/07 02:32:19;;;;;;;5.00;2.03;;;2.80;79.80;;;;;;5075271;28;20573;-85
2021/03/07 02:34:54;;;;;;;5.97;2.27;;;2.80;79.70;;;;;;5075896;28;20198;-85
2021/03/07 02:37:22;;;;;;;6.03;2.70;;;2.80;79.60;;;;;;5093917;28;20180;-85
2021/03/07 02:39:57;;;;;;;6.70;2.10;;;2.90;79.90;;;;;;5075389;28;20171;-84
2021/03/07 02:42:39;;;;;;;5.33;2.40;;;2.90;80.00;;;;;;5075301;28;20248;-84
2021/03/07 02:45:16;;;;;;;5.27;2.60;;;2.80;79.90;;;;;;5075221;28;20282;-85
2021/03/07 02:47:55;;;;;;;4.33;2.23;;;2.90;80.00;;;;;;5093315;28;20264;-84
2021/03/07 02:50:27;;;;;;;8.67;2.20;;;2.80;80.10;;;;;;5093246;28;20258;-85
2021/03/07 02:53:10;;;;;;;3.03;2.10;;;2.80;80.40;;;;;;5093293;28;20175;-85
2021/03/07 02:55:42;;;;;;;6.87;2.33;;;2.80;79.90;;;;;;5075042;28;20233;-85
2021/03/07 02:58:21;;;;;;;5.70;2.17;;;2.80;80.00;;;;;;5075212;28;20176;-85
2021/03/07 03:00:57;;;;;;;5.23;2.43;;;2.80;80.40;;;;;;5075074;28;20186;-84
2021/03/07 03:03:37;;;;;;;4.70;2.07;;;2.70;80.70;;;;;;5093189;28;20253;-85
2021/03/07 03:06:15;;;;;;;5.80;2.40;;;2.80;80.70;;;;;;5074956;28;20206;-84
2021/03/07 03:08:58;;;;;;;5.20;2.30;;;2.80;80.40;;;;;;5093296;28;20199;-85
2021/03/07 03:11:39;;;;;;;4.77;2.40;;;2.70;80.60;;;;;;5074875;28;20202;-85
2021/03/07 03:14:17;;;;;;;6.47;2.50;;;2.80;80.70;;;;;;5092892;28;20202;-84
2021/03/07 03:16:53;;;;;;;5.60;2.50;;;2.80;80.90;;;;;;5076294;28;20178;-84
2021/03/07 03:19:31;;;;;;;4.93;2.40;;;2.70;81.00;;;;;;5078988;28;20183;-85
2021/03/07 03:22:04;;;;;;;4.97;2.17;;;2.70;81.30;;;;;;5097045;28;20194;-85
2021/03/07 03:24:37;;;;;;;5.50;2.53;;;2.70;81.20;;;;;;5078747;28;20198;-84
2021/03/07 03:27:11;;;;;;;4.73;2.20;;;2.70;81.30;;;;;;5096963;28;20158;-85
2021/03/07 03:29:41;;;;;;;5.53;2.27;;;2.70;81.50;;;;;;5096940;28;20192;-84
2021/03/07 03:32:20;;;;;;;7.07;2.57;;;2.60;81.60;;;;;;5096794;28;20206;-84
2021/03/07 03:34:52;;;;;;;7.43;2.70;;;2.60;81.60;;;;;;5078612;28;20664;-85
2021/03/07 03:37:18;;;;;;;3.73;2.40;;;2.60;81.30;;;;;;5096771;28;20206;-85
2021/03/07 03:39:49;;;;;;;5.57;2.33;;;2.70;81.10;;;;;;5078731;28;20178;-85
2021/03/07 03:42:20;;;;;;;7.80;2.80;;;2.70;80.90;;;;;;5096686;28;20189;-85
2021/03/07 03:44:54;;;;;;;8.47;2.90;;;2.80;80.60;;;;;;5078363;28;20206;-85
2021/03/07 03:47:29;;;;;;;8.50;3.00;;;2.70;80.70;;;;;;5096699;28;20174;-85
2021/03/07 03:50:03;;;;;;;5.63;2.83;;;2.80;80.70;;;;;;5078354;28;20182;-85
2021/03/07 03:52:43;;;;;;;6.07;2.53;;;2.70;80.60;;;;;;5078276;28;20248;-85
2021/03/07 03:55:21;;;;;;;6.90;3.10;;;2.80;80.60;;;;;;5096481;28;20190;-85
2021/03/07 03:57:57;;;;;;;6.30;2.97;;;2.80;80.60;;;;;;5096455;28;20178;-85
2021/03/07 04:00:34;;;;;;;7.67;3.37;;;2.80;80.10;;;;;;5096532;28;20159;-85
2021/03/07 04:03:07;;;;;;;6.00;3.03;;;2.80;80.40;;;;;;5096283;28;20211;-85
2021/03/07 04:05:41;;;;;;;4.33;2.90;;;2.90;79.80;;;;;;5078110;28;20201;-85
2021/03/07 04:08:16;;;;;;;9.20;2.97;;;2.90;79.70;;;;;;5096196;28;20171;-85
2021/03/07 04:10:49;;;;;;;4.60;3.03;;;2.90;79.90;;;;;;5096429;28;20198;-85
2021/03/07 04:13:27;;;;;;;4.17;3.10;;;2.90;79.90;;;;;;5096195;28;20621;-85
2021/03/07 04:15:59;;;;;;;7.50;3.37;;;2.90;79.70;;;;;;5077865;28;20227;-85
2021/03/07 04:18:31;;;;;;;6.63;3.20;;;2.90;79.50;;;;;;5077871;28;20187;-85
2021/03/07 04:21:02;;;;;;;8.87;3.47;;;2.90;79.60;;;;;;5095906;28;20268;-85
2021/03/07 04:23:34;;;;;;;6.33;2.73;;;2.90;79.70;;;;;;5078749;28;20171;-85
2021/03/07 04:26:05;;;;;;;10.17;3.37;;;3.00;79.60;;;;;;5077596;28;20255;-85
2021/03/07 04:28:41;;;;;;;6.87;4.10;;;2.90;80.00;;;;;;5076868;28;20648;-85
2021/03/07 04:31:17;;;;;;;7.50;3.50;;;2.90;80.10;;;;;;5095782;28;20336;-85
2021/03/07 04:33:51;;;;;;;6.60;3.83;;;2.90;80.40;;;;;;5095776;28;20170;-85
2021/03/07 04:36:27;;;;;;;6.33;3.30;;;2.90;80.50;;;;;;5096013;28;20168;-85
2021/03/07 04:38:57;;;;;;;5.50;3.50;;;2.90;80.50;;;;;;5077468;28;20171;-85
2021/03/07 04:41:29;;;;;;;6.17;3.70;;;2.80;80.80;;;;;;5095550;28;20222;-85
2021/03/07 04:44:01;;;;;;;4.90;3.43;;;2.80;80.80;;;;;;5095498;28;20550;-84
2021/03/07 04:46:27;;;;;;;6.10;3.53;;;2.90;80.80;;;;;;5077312;28;20178;-85
2021/03/07 04:48:55;;;;;;;8.87;3.43;;;2.90;81.00;;;;;;5095424;28;20175;-84
2021/03/07 04:51:30;;;;;;;6.40;3.30;;;2.80;80.70;;;;;;5077162;28;20206;-84
2021/03/07 04:54:01;;;;;;;8.90;3.63;;;2.90;80.90;;;;;;5095353;28;20166;-85
2021/03/07 04:56:35;;;;;;;6.07;3.50;;;2.90;80.90;;;;;;5095285;28;20174;-85
2021/03/07 04:59:01;;;;;;;6.80;3.40;;;2.90;81.20;;;;;;5077029;28;20172;-85
2021/03/07 05:01:36;;;;;;;12.57;3.80;;;2.90;81.10;;;;;;5077031;28;20179;-85
2021/03/07 05:04:07;;;;;;;12.57;3.77;;;2.80;81.30;;;;;;5095074;28;20192;-85
2021/03/07 05:06:45;;;;;;;5.67;3.30;;;2.90;81.40;;;;;;5076947;28;20181;-85
2021/03/07 05:09:11;;;;;;;5.30;3.70;;;2.90;81.80;;;;;;5095110;28;20180;-85
2021/03/07 05:11:41;;;;;;;8.70;3.90;;;2.80;81.70;;;;;;5094874;28;20294;-85
2021/03/07 05:14:14;;;;;;;6.70;3.87;;;2.90;81.80;;;;;;5094715;28;20285;-85
2021/03/07 05:16:47;;;;;;;6.03;3.97;;;2.80;82.00;;;;;;5076674;28;20204;-84
2021/03/07 05:19:15;;;;;;;5.53;3.97;;;2.80;82.10;;;;;;5076747;28;20174;-85
2021/03/07 05:21:46;;;;;;;6.73;3.90;;;2.80;82.20;;;;;;5094833;28;20584;-84
2021/03/07 05:24:17;;;;;;;11.10;4.07;;;2.80;82.10;;;;;;5094659;28;20227;-85
2021/03/07 05:26:49;;;;;;;9.93;4.50;;;2.90;81.90;;;;;;5094705;28;20171;-85
2021/03/07 05:29:21;;;;;;;10.10;4.90;;;2.80;81.90;;;;;;5094731;28;20164;-85
2021/03/07 05:31:56;;;;;;;10.23;5.00;;;2.90;81.40;;;;;;5076258;28;20693;-85
2021/03/07 05:34:25;;;;;;;8.57;4.90;;;2.90;81.60;;;;;;5076254;28;20701;-85
2021/03/07 05:36:59;;;;;;;10.97;5.07;;;2.90;81.50;;;;;;5076582;28;20595;-84
2021/03/07 05:39:30;;;;;;;9.57;5.70;;;2.90;81.60;;;;;;5076338;28;20174;-85
2021/03/07 05:42:05;;;;;;;8.33;4.37;;;2.90;81.70;;;;;;5094241;28;20267;-85
2021/03/07 05:44:34;;;;;;;9.53;4.57;;;2.90;81.80;;;;;;5094298;28;20563;-84
2021/03/07 05:47:04;;;;;;;8.07;4.97;;;2.90;81.40;;;;;;5076113;28;20180;-85
2021/03/07 05:49:41;;;;;;;8.70;4.57;;;2.90;81.20;;;;;;5076030;28;20182;-84
2021/03/07 05:52:21;;;;;;;13.00;4.80;;;2.90;81.30;;;;;;5094243;28;20194;-84
2021/03/07 05:54:54;;;;;;;9.17;5.17;;;2.90;81.00;;;;;;5094248;28;20244;-85
2021/03/07 05:57:35;;;;;;;11.50;5.10;;;3.00;80.90;;;;;;5075973;28;20166;-85
2021/03/07 06:00:05;;;;;;;11.20;4.70;;;3.00;80.80;;;;;;5094054;28;20193;-85
2021/03/07 06:02:44;;;;;;;9.63;3.97;;;3.00;81.10;;;;;;5075825;28;20266;-85
2021/03/07 06:05:11;;;;;;;6.63;4.10;;;3.00;81.40;;;;;;5075708;28;20194;-84
2021/03/07 06:07:41;;;;;;;11.33;4.40;;;2.90;81.70;;;;;;5093923;28;20204;-85
2021/03/07 06:10:11;;;;;;;12.60;5.00;;;2.90;81.60;;;;;;5093909;28;20176;-85
2021/03/07 06:12:54;;;;;;;6.70;4.00;;;2.90;81.60;;;;;;5075657;28;20230;-85
2021/03/07 06:15:29;;;;;;;13.00;5.20;;;2.90;81.10;;;;;;5075453;28;20219;-85
2021/03/07 06:17:56;;;;;;;11.43;4.53;;;3.00;80.50;;;;;;5093786;28;20168;-85
2021/03/07 06:20:28;;;;;;;9.77;4.43;;;3.00;79.80;;;;;;5093699;28;20246;-85
2021/03/07 06:23:03;;;;;;;9.33;5.00;;;3.00;79.10;;;;;;5075488;28;20169;-84
2021/03/07 06:25:33;;;;;;;13.10;3.60;;;3.00;79.40;;;;;;5093667;28;20190;-85
2021/03/07 06:28:01;;;;;;;6.70;3.60;;;3.10;78.30;;;;;;5093540;28;20209;-84
2021/03/07 06:30:32;;;;;;;13.93;4.10;;;3.10;77.10;;;;;;5093720;28;20179;-85
2021/03/07 06:33:02;;;;;;;8.13;3.20;;;3.10;77.10;;;;;;5093467;28;20307;-84
2021/03/07 06:35:34;;;;;;;9.10;3.63;;;3.10;76.80;;;;;;5093506;28;20270;-85
2021/03/07 06:38:11;;;;;;;14.57;3.93;;;3.10;76.80;;;;;;5075264;28;20171;-84
2021/03/07 06:40:47;;;;;;;8.37;3.17;;;3.00;76.40;;;;;;5075892;28;20178;-84
2021/03/07 06:43:31;;;;;;;6.37;3.27;;;3.00;76.60;;;;;;5075233;28;20169;-84
2021/03/07 06:46:04;;;;;;;11.07;4.30;;;3.00;76.70;;;;;;5075227;28;20281;-84
2021/03/07 06:48:39;;;;;;;11.33;3.80;;;3.00;76.20;;;;;;5093302;28;20167;-84
2021/03/07 06:51:19;;;;;;;10.37;3.80;;;3.00;76.20;;;;;;5092838;28;20323;-85
2021/03/07 06:53:49;;;;;;;8.70;3.43;;;3.00;75.50;;;;;;5075338;28;20181;-84
2021/03/07 06:56:51;;;;;;;12.10;3.70;;;3.10;75.70;;;;;;5093556;28;20172;-85
2021/03/07 06:59:22;;;;;;;10.70;4.10;;;3.10;74.60;;;;;;5092946;28;20257;-85
2021/03/07 07:01:57;;;;;;;6.10;3.13;;;3.10;74.50;;;;;;5093203;28;20204;-85
2021/03/07 07:04:44;;;;;;;13.67;3.73;;;3.00;74.50;;;;;;5075456;28;20590;-85
2021/03/07 07:07:21;;;;;;;7.87;3.30;;;3.00;75.30;;;;;;5093229;28;20630;-85
2021/03/07 07:10:06;;;;;;;8.03;3.93;;;3.00;74.90;;;;;;5075185;28;20182;-85
2021/03/07 07:12:37;;;;;;;10.17;3.77;;;3.00;75.10;;;;;;5074979;28;20198;-84
2021/03/07 07:15:16;;;;;;;6.70;3.00;;;3.00;75.30;;;;;;5074778;28;20213;-85
2021/03/07 07:17:48;;;;;;;4.67;2.77;;;3.00;75.60;;;;;;5187905;22;20226;-79
2021/03/07 07:20:22;;;;;;;12.67;3.30;;;3.10;75.30;;;;;;5098045;28;20174;-81
2021/03/07 07:22:48;;;;;;;9.90;2.70;;;3.10;75.70;;;;;;5078811;28;20582;-81
2021/03/07 07:25:16;;;;;;;8.83;3.33;;;3.20;75.90;;;;;;5079256;28;20210;-81
2021/03/07 07:27:51;;;;;;;8.00;3.10;;;3.20;75.80;;;;;;5080031;28;20191;-80
2021/03/07 07:30:27;;;;;;;6.90;2.67;;;3.20;75.90;;;;;;5098046;28;20175;-82
2021/03/07 07:33:01;;;;;;;16.27;3.20;;;3.20;76.00;;;;;;5098672;28;20176;-80
2021/03/07 07:35:32;;;;;;;10.00;2.53;;;3.30;76.10;;;;;;5080381;28;20163;-81
2021/03/07 07:38:11;;;;;;;7.20;2.70;;;3.30;75.80;;;;;;5098036;28;20229;-80
2021/03/07 07:40:46;;;;;;;6.87;2.93;;;3.30;75.40;;;;;;5079928;28;20180;-82
2021/03/07 07:43:25;;;;;;;7.60;3.20;;;3.30;75.80;;;;;;5098692;28;20170;-81
2021/03/07 07:46:14;;;;;;;11.90;3.10;;;3.30;75.20;;;;;;5098642;28;20547;-83
2021/03/07 07:48:49;;;;;;;8.07;3.30;;;3.30;75.10;;;;;;5097546;28;20177;-81
2021/03/07 07:51:37;;;;;;;10.20;3.13;;;3.40;75.60;;;;;;5098068;28;20555;-80
2021/03/07 07:54:10;;;;;;;10.17;2.53;;;3.40;75.60;;;;;;5079833;28;20206;-80
2021/03/07 07:56:46;;;;;;;9.47;2.97;;;3.40;75.30;;;;;;5098303;28;20187;-82
2021/03/07 07:59:35;;;;;;;8.90;3.10;;;3.50;75.60;;;;;;5098466;28;20163;-82
2021/03/07 08:02:08;;;;;;;11.07;2.80;;;3.50;76.00;;;;;;5097733;28;20654;-80
2021/03/07 08:04:46;;;;;;;10.90;2.53;;;3.50;75.30;;;;;;5101536;28;20175;-79
2021/03/07 08:07:37;;;;;;;7.53;2.87;;;3.50;74.50;;;;;;5101657;28;20658;-80
2021/03/07 08:10:30;;;;;;;11.67;3.40;;;3.50;75.20;;;;;;5082959;28;20195;-80
2021/03/07 08:13:05;;;;;;;8.33;2.70;;;3.50;75.30;;;;;;5102045;28;20257;-81
2021/03/07 08:15:47;;;;;;;9.73;3.33;;;3.50;75.30;;;;;;5100966;28;20171;-81
2021/03/07 08:18:21;;;;;;;9.10;2.53;;;3.60;75.50;;;;;;5100739;28;20193;-82
2021/03/07 08:20:59;;;;;;;5.33;2.47;;;3.60;75.70;;;;;;5081775;28;20177;-83
2021/03/07 08:23:51;;;;;;;7.10;3.23;;;3.60;75.50;;;;;;5083305;28;20172;-80
2021/03/07 08:26:18;;;;;;;12.57;3.80;;;3.60;75.40;;;;;;5100848;28;20549;-83
2021/03/07 08:28:51;;;;;;;11.43;2.83;;;3.70;75.60;;;;;;5099509;28;20162;-83
2021/03/07 08:31:31;;;;;;;8.30;2.93;;;3.80;75.90;;;;;;5082099;28;20207;-79
2021/03/07 08:34:20;;;;;;;11.67;3.17;;;3.80;76.10;;;;;;5099624;28;20155;-80
2021/03/07 08:36:57;;;;;;;4.93;3.00;;;3.80;75.60;;;;;;5080248;28;20225;-83
2021/03/07 08:39:31;;;;;;;11.87;3.17;;;3.80;75.50;;;;;;5098002;28;20160;-80
2021/03/07 08:42:03;;;;;;;6.27;3.20;;;3.90;75.40;;;;;;5099039;28;20185;-80
2021/03/07 08:44:30;;;;;;;7.83;3.03;;;3.90;75.20;;;;;;5082239;28;20249;-80
2021/03/07 08:47:01;;;;;;;7.50;2.70;;;3.80;74.70;;;;;;5100917;28;20196;-80
2021/03/07 08:49:35;;;;;;;10.30;3.00;;;4.00;75.20;;;;;;5101216;28;20546;-81
2021/03/07 08:52:10;;;;;;;6.07;2.83;;;4.10;74.60;;;;;;5100887;28;20194;-81
2021/03/07 08:54:39;;;;;;;7.17;3.17;;;4.20;74.40;;;;;;5099953;28;20162;-80
2021/03/07 08:57:12;;;;;;;10.00;3.43;;;4.30;74.00;;;;;;5082051;28;20219;-80
2021/03/07 08:59:44;;;;;;;4.63;2.87;;;4.40;73.40;;;;;;5099597;28;20256;-82
2021/03/07 09:02:20;;;;;;;6.27;3.20;;;4.50;73.90;;;;;;5099918;28;20195;-80
2021/03/07 09:04:53;;;;;;;10.40;3.13;;;4.50;73.40;;;;;;5099654;28;20188;-81
2021/03/07 09:07:32;;;;;;;6.67;2.90;;;4.60;73.00;;;;;;5099343;28;20205;-80
2021/03/07 09:10:03;;;;;;;7.23;2.63;;;4.70;72.50;;;;;;5098996;28;20163;-80
2021/03/07 09:12:33;;;;;;;6.37;3.07;;;4.70;73.00;;;;;;5098083;28;20578;-80
2021/03/07 09:15:15;;;;;;;6.20;2.87;;;4.80;72.60;;;;;;5097878;28;20173;-82
2021/03/07 09:17:47;;;;;;;9.57;3.43;;;4.90;72.50;;;;;;5079818;28;20674;-84
2021/03/07 09:20:13;;;;;;;8.83;3.70;;;4.90;71.80;;;;;;5098477;28;20170;-82
2021/03/07 09:22:51;;;;;;;5.50;2.93;;;4.90;72.20;;;;;;5079872;28;20181;-80
2021/03/07 09:25:21;;;;;;;10.93;3.10;;;5.00;71.60;;;;;;5097855;28;20175;-80
2021/03/07 09:27:49;;;;;;;11.43;3.53;;;5.00;71.90;;;;;;5097028;28;20195;-80
2021/03/07 09:30:19;;;;;;;7.17;3.17;;;5.20;72.10;;;;;;5079394;28;20178;-81
2021/03/07 09:32:57;;;;;;;5.63;3.30;;;5.10;70.10;;;;;;5097927;28;20188;-80
2021/03/07 09:35:36;;;;;;;11.73;2.90;;;5.10;69.90;;;;;;5098069;28;20232;-80
2021/03/07 09:38:04;;;;;;;9.57;2.77;;;5.10;70.50;;;;;;5098151;28;20212;-83
2021/03/07 09:40:41;;;;;;;10.90;3.37;;;5.20;71.00;;;;;;5098657;28;20169;-81
2021/03/07 09:43:13;;;;;;;8.60;3.43;;;5.20;70.70;;;;;;5098940;28;20166;-80
2021/03/07 09:45:47;;;;;;;8.10;3.30;;;5.20;69.60;;;;;;5078800;28;20257;-80
2021/03/07 09:48:22;;;;;;;6.27;2.80;;;5.30;70.90;;;;;;5097335;28;20208;-81
2021/03/07 09:50:51;;;;;;;7.50;3.50;;;5.30;70.10;;;;;;5097431;28;20196;-80
2021/03/07 09:53:17;;;;;;;12.53;3.50;;;5.30;70.30;;;;;;5096817;28;20246;-79
2021/03/07 09:55:51;;;;;;;8.07;3.20;;;5.40;71.10;;;;;;5078323;28;20202;-78
2021/03/07 09:58:33;;;;;;;13.77;4.13;;;5.30;71.00;;;;;;5097050;28;20262;-80
2021/03/07 10:01:04;;;;;;;8.27;3.30;;;5.40;71.30;;;;;;5079479;28;20170;-80
2021/03/07 10:03:31;;;;;;;7.33;2.80;;;5.50;71.30;;;;;;5096845;28;20161;-83
2021/03/07 10:06:14;;;;;;;14.50;3.70;;;5.60;70.80;;;;;;5096989;28;20295;-80
2021/03/07 10:08:42;;;;;;;8.60;3.23;;;5.50;70.40;;;;;;5096922;28;20163;-80
2021/03/07 10:11:11;;;;;;;8.53;3.73;;;5.60;71.30;;;;;;5077675;28;20743;-80
2021/03/07 10:13:40;;;;;;;11.80;3.70;;;5.60;70.20;;;;;;5096084;28;20663;-82
2021/03/07 10:16:08;;;;;;;10.20;4.23;;;5.70;70.50;;;;;;5077570;28;20198;-83
2021/03/07 10:18:36;;;;;;;10.00;3.23;;;5.60;69.60;;;;;;5096676;28;20174;-80
2021/03/07 10:21:04;;;;;;;9.37;4.40;;;5.50;69.70;;;;;;5096206;28;20178;-81
2021/03/07 10:23:32;;;;;;;8.87;3.80;;;5.60;69.90;;;;;;5095657;28;20175;-83
2021/03/07 10:26:05;;;;;;;14.00;4.20;;;5.50;69.80;;;;;;5095080;28;20190;-81
2021/03/07 10:28:34;;;;;;;11.27;3.77;;;5.50;69.50;;;;;;5095712;28;20162;-80
2021/03/07 10:31:14;;;;;;;5.67;3.23;;;5.60;70.10;;;;;;5096751;28;20198;-80
2021/03/07 10:33:52;;;;;;;11.67;3.43;;;5.60;68.40;;;;;;5080381;28;20171;-79
2021/03/07 10:36:23;;;;;;;11.87;4.00;;;5.50;68.80;;;;;;5099390;28;20229;-80
2021/03/07 10:39:10;;;;;;;7.37;3.37;;;5.50;68.30;;;;;;5099037;28;20194;-82
2021/03/07 10:41:41;;;;;;;10.37;4.80;;;5.50;67.90;;;;;;5098348;28;20209;-81
2021/03/07 10:44:13;;;;;;;9.50;3.33;;;5.40;68.90;;;;;;5098183;28;20174;-82
2021/03/07 10:46:55;;;;;;;9.30;4.40;;;5.50;69.10;;;;;;5080230;28;20218;-81
2021/03/07 10:49:29;;;;;;;6.10;3.93;;;5.30;68.70;;;;;;5081143;28;20181;-81
2021/03/07 10:52:00;;;;;;;9.93;4.63;;;5.30;68.60;;;;;;5097894;28;20186;-83
2021/03/07 10:54:29;;;;;;;9.90;4.43;;;5.30;68.90;;;;;;5096346;28;20163;-82
2021/03/07 10:57:01;;;;;;;13.73;4.63;;;5.30;69.30;;;;;;5097166;28;20250;-81
2021/03/07 10:59:33;;;;;;;11.50;5.27;;;5.30;69.50;;;;;;5080582;28;20262;-83
2021/03/07 11:02:11;;;;;;;12.23;4.37;;;5.20;69.30;;;;;;5079919;28;20252;-81
2021/03/07 11:04:47;;;;;;;8.27;4.60;;;5.20;69.40;;;;;;5098892;28;20200;-80
2021/03/07 11:07:22;;;;;;;7.17;4.63;;;5.10;69.90;;;;;;5080126;28;20205;-80
2021/03/07 11:09:57;;;;;;;10.43;5.57;;;5.10;69.50;;;;;;5098786;28;20154;-80
2021/03/07 11:12:30;;;;;;;17.77;5.73;;;5.20;70.10;;;;;;5099022;28;20186;-83
2021/03/07 11:15:02;;;;;;;9.73;6.33;;;5.10;70.70;;;;;;5080966;28;20154;-80
2021/03/07 11:17:35;;;;;;;11.13;6.60;;;5.10;71.30;;;;;;5099074;28;20289;-83
2021/03/07 11:20:09;;;;;;;15.10;7.13;;;5.10;71.60;;;;;;5098142;28;20257;-80
2021/03/07 11:22:44;;;;;;;18.17;7.77;;;5.00;71.50;;;;;;5097966;28;20183;-80
2021/03/07 11:25:21;;;;;;;13.17;6.93;;;5.00;71.70;;;;;;5098832;28;20589;-81
2021/03/07 11:27:57;;;;;;;15.73;7.83;;;5.00;72.30;;;;;;5098285;28;20201;-81
2021/03/07 11:30:31;;;;;;;14.90;7.77;;;4.90;72.50;;;;;;5099015;28;20331;-79
2021/03/07 11:33:02;;;;;;;19.23;8.23;;;5.00;72.90;;;;;;5079963;28;20209;-83
2021/03/07 11:35:31;;;;;;;25.87;8.83;;;5.00;73.10;;;;;;5097969;28;20212;-82
2021/03/07 11:38:03;;;;;;;20.80;8.00;;;5.00;72.70;;;;;;5096202;28;20583;-79
2021/03/07 11:40:38;;;;;;;10.00;5.63;;;5.10;73.30;;;;;;5098415;28;20257;-80
2021/03/07 11:43:12;;;;;;;15.93;7.93;;;5.10;73.40;;;;;;5079556;28;20180;-81
2021/03/07 11:45:45;;;;;;;14.97;8.87;;;5.00;73.50;;;;;;5098390;28;20568;-82
2021/03/07 11:48:17;;;;;;;18.10;9.60;;;5.00;73.70;;;;;;5097535;28;20177;-81
2021/03/07 11:50:55;;;;;;;15.93;8.53;;;5.00;74.10;;;;;;5079753;28;20170;-82
2021/03/07 11:53:31;;;;;;;21.20;8.93;;;5.10;74.20;;;;;;5098067;28;20579;-80
2021/03/07 11:56:08;;;;;;;18.73;8.53;;;5.20;73.80;;;;;;5079608;28;20669;-81
2021/03/07 11:58:40;;;;;;;17.87;9.60;;;5.20;74.00;;;;;;5097779;28;20170;-82
2021/03/07 12:01:17;;;;;;;27.33;10.03;;;5.10;74.20;;;;;;5097530;28;20182;-83
2021/03/07 12:03:49;;;;;;;12.83;7.53;;;5.10;74.30;;;;;;5079427;28;20170;-82
2021/03/07 12:06:23;;;;;;;9.90;6.37;;;5.10;74.90;;;;;;5079275;28;20197;-81
2021/03/07 12:08:59;;;;;;;19.07;10.67;;;4.90;75.20;;;;;;5098311;28;20292;-81
2021/03/07 12:11:31;;;;;;;11.93;8.27;;;5.00;75.30;;;;;;5097774;28;20201;-82
2021/03/07 12:14:03;;;;;;;21.87;10.00;;;5.10;75.60;;;;;;5078939;28;20158;-81
2021/03/07 12:16:37;;;;;;;14.53;8.20;;;5.20;75.90;;;;;;5078426;28;20354;-80
2021/03/07 12:19:11;;;;;;;23.43;11.23;;;5.30;76.00;;;;;;5078968;28;20272;-83
2021/03/07 12:21:42;;;;;;;18.13;11.17;;;5.40;75.80;;;;;;5078406;28;20174;-81
2021/03/07 12:24:16;;;;;;;21.03;11.00;;;5.50;76.10;;;;;;5096858;28;20167;-81
2021/03/07 12:26:49;;;;;;;18.63;9.43;;;5.40;75.20;;;;;;5096486;28;20194;-82
2021/03/07 12:29:28;;;;;;;18.53;11.33;;;5.50;75.70;;;;;;5078174;28;20174;-83
2021/03/07 12:32:04;;;;;;;19.23;12.40;;;5.60;75.90;;;;;;5096097;28;20194;-83
2021/03/07 12:34:39;;;;;;;23.57;11.70;;;5.70;76.50;;;;;;5096518;28;20177;-81
2021/03/07 12:37:14;;;;;;;31.67;12.40;;;5.60;76.50;;;;;;5096429;28;20197;-81
2021/03/07 12:39:40;;;;;;;25.07;12.03;;;5.60;76.40;;;;;;5096405;28;20518;-82
2021/03/07 12:42:11;;;;;;;18.23;11.90;;;5.70;76.70;;;;;;5099582;28;20178;-81
2021/03/07 12:44:41;;;;;;;28.00;12.93;;;5.80;76.80;;;;;;5098075;28;20167;-84
2021/03/07 12:47:14;;;;;;;31.70;12.60;;;5.80;77.00;;;;;;5078906;28;20226;-81
2021/03/07 12:49:42;;;;;;;20.23;12.37;;;5.90;76.80;;;;;;5096408;28;20154;-80
2021/03/07 12:52:15;;;;;;;24.40;12.03;;;6.00;76.80;;;;;;5078459;28;20316;-81
2021/03/07 12:54:49;;;;;;;20.57;10.80;;;5.90;76.50;;;;;;5096715;28;20158;-81
2021/03/07 12:57:20;;;;;;;24.90;12.13;;;5.90;76.70;;;;;;5079081;28;20281;-81
2021/03/07 12:59:49;;;;;;;26.47;13.10;;;5.90;77.10;;;;;;5079421;28;20575;-79
2021/03/07 13:02:15;;;;;;;21.23;12.33;;;5.80;77.10;;;;;;5079685;28;20179;-84
2021/03/07 13:04:48;;;;;;;28.80;13.57;;;5.90;77.20;;;;;;5098041;28;20220;-80
2021/03/07 13:07:26;;;;;;;20.00;11.90;;;5.90;77.10;;;;;;5080118;28;20225;-80
2021/03/07 13:10:00;;;;;;;16.83;9.17;;;5.90;77.30;;;;;;5098824;28;20245;-81
2021/03/07 13:12:30;;;;;;;21.60;11.90;;;5.80;77.20;;;;;;5097190;28;20662;-80
2021/03/07 13:15:02;;;;;;;18.20;10.80;;;5.80;77.80;;;;;;5078373;28;20262;-80
2021/03/07 13:17:35;;;;;;;24.20;12.63;;;5.90;77.80;;;;;;5188073;22;20231;-83
2021/03/07 13:20:13;;;;;;;20.47;10.10;;;5.90;77.80;;;;;;5076811;28;20710;-84
2021/03/07 13:22:44;;;;;;;23.23;12.87;;;5.80;77.90;;;;;;5094938;28;20196;-83
2021/03/07 13:25:18;;;;;;;27.43;12.63;;;5.80;78.30;;;;;;5076894;28;20587;-84
2021/03/07 13:27:44;;;;;;;27.57;14.67;;;5.80;78.70;;;;;;5094621;28;20282;-84